sensor_id;sensor_type;location;lat;lon;timestamp;P1;durP1;ratioP1;P2;durP2;ratioP2
19800;SDS011;10060;48.274;12.214;2023-01-19T00:02:36;29.90;;;16.60;;
19800;SDS011;10060;48.274;12.214;2023-01-19T00:05:38;24.27;;;14.37;;
19800;SDS011;10060;48.274;12.214;2023-01-19T00:08:40;26.87;;;15.70;;
19800;SDS011;10060;48.274;12.214;2023-01-19T00:11:44;26.83;;;15.07;;
19800;SDS011;10060;48.274;12.214;2023-01-19T00:14:48;26.77;;;15.07;;
19800;SDS011;10060;48.274;12.214;2023-01-19T00:17:50;29.23;;;15.43;;
19800;SDS011;10060;48.274;12.214;2023-01-19T00:20:52;30.40;;;15.70;;
19800;SDS011;10060;48.274;12.214;2023-01-19T00:23:54;26.23;;;15.00;;
19800;SDS011;10060;48.274;12.214;2023-01-19T00:26:56;29.40;;;17.00;;
19800;SDS011;10060;48.274;12.214;2023-01-19T00:30:00;29.63;;;15.93;;
19800;SDS011;10060;48.274;12.214;2023-01-19T00:33:05;30.07;;;16.03;;
19800;SDS011;10060;48.274;12.214;2023-01-19T00:36:08;31.47;;;16.83;;
19800;SDS011;10060;48.274;12.214;2023-01-19T00:39:12;27.60;;;15.50;;
19800;SDS011;10060;48.274;12.214;2023-01-19T00:42:14;31.13;;;16.57;;
19800;SDS011;10060;48.274;12.214;2023-01-19T00:45:35;31.00;;;15.80;;
19800;SDS011;10060;48.274;12.214;2023-01-19T00:48:37;29.07;;;16.10;;
19800;SDS011;10060;48.274;12.214;2023-01-19T00:51:39;31.03;;;16.33;;
19800;SDS011;10060;48.274;12.214;2023-01-19T00:54:42;30.70;;;15.77;;
19800;SDS011;10060;48.274;12.214;2023-01-19T00:57:44;31.87;;;15.97;;
19800;SDS011;10060;48.274;12.214;2023-01-19T01:00:47;29.47;;;16.10;;
19800;SDS011;10060;48.274;12.214;2023-01-19T01:03:49;27.93;;;16.00;;
19800;SDS011;10060;48.274;12.214;2023-01-19T01:06:53;33.43;;;16.60;;
19800;SDS011;10060;48.274;12.214;2023-01-19T01:09:55;31.53;;;15.37;;
19800;SDS011;10060;48.274;12.214;2023-01-19T01:12:57;31.40;;;16.07;;
19800;SDS011;10060;48.274;12.214;2023-01-19T01:16:00;26.97;;;15.33;;
19800;SDS011;10060;48.274;12.214;2023-01-19T01:19:02;31.83;;;15.30;;
19800;SDS011;10060;48.274;12.214;2023-01-19T01:22:05;31.80;;;16.83;;
19800;SDS011;10060;48.274;12.214;2023-01-19T01:25:07;31.77;;;15.83;;
19800;SDS011;10060;48.274;12.214;2023-01-19T01:28:09;32.23;;;16.33;;
19800;SDS011;10060;48.274;12.214;2023-01-19T01:31:13;32.73;;;16.50;;
19800;SDS011;10060;48.274;12.214;2023-01-19T01:34:15;34.70;;;17.37;;
19800;SDS011;10060;48.274;12.214;2023-01-19T01:37:17;33.67;;;17.10;;
19800;SDS011;10060;48.274;12.214;2023-01-19T01:40:19;31.90;;;16.50;;
19800;SDS011;10060;48.274;12.214;2023-01-19T01:43:26;37.30;;;17.80;;
19800;SDS011;10060;48.274;12.214;2023-01-19T01:46:43;35.27;;;18.03;;
19800;SDS011;10060;48.274;12.214;2023-01-19T01:49:45;36.10;;;17.37;;
19800;SDS011;10060;48.274;12.214;2023-01-19T01:52:49;33.73;;;18.43;;
19800;SDS011;10060;48.274;12.214;2023-01-19T01:55:53;33.37;;;18.17;;
19800;SDS011;10060;48.274;12.214;2023-01-19T01:58:56;36.37;;;19.30;;
19800;SDS011;10060;48.274;12.214;2023-01-19T02:02:01;35.50;;;18.37;;
19800;SDS011;10060;48.274;12.214;2023-01-19T02:05:24;35.67;;;19.37;;
19800;SDS011;10060;48.274;12.214;2023-01-19T02:08:27;35.73;;;19.00;;
19800;SDS011;10060;48.274;12.214;2023-01-19T02:11:49;40.30;;;18.90;;
19800;SDS011;10060;48.274;12.214;2023-01-19T02:15:13;36.77;;;19.67;;
19800;SDS011;10060;48.274;12.214;2023-01-19T02:18:17;40.33;;;19.63;;
19800;SDS011;10060;48.274;12.214;2023-01-19T02:21:21;40.20;;;19.20;;
19800;SDS011;10060;48.274;12.214;2023-01-19T02:24:25;36.40;;;20.13;;
19800;SDS011;10060;48.274;12.214;2023-01-19T02:27:28;34.20;;;19.13;;
19800;SDS011;10060;48.274;12.214;2023-01-19T02:30:30;39.57;;;20.40;;
19800;SDS011;10060;48.274;12.214;2023-01-19T02:33:33;39.27;;;19.23;;
19800;SDS011;10060;48.274;12.214;2023-01-19T02:36:36;35.80;;;18.70;;
19800;SDS011;10060;48.274;12.214;2023-01-19T02:39:42;31.17;;;16.10;;
19800;SDS011;10060;48.274;12.214;2023-01-19T02:42:45;32.23;;;17.27;;
19800;SDS011;10060;48.274;12.214;2023-01-19T02:45:49;33.40;;;18.00;;
19800;SDS011;10060;48.274;12.214;2023-01-19T02:48:51;35.43;;;18.17;;
19800;SDS011;10060;48.274;12.214;2023-01-19T02:51:54;27.27;;;15.60;;
19800;SDS011;10060;48.274;12.214;2023-01-19T02:54:59;27.50;;;15.77;;
19800;SDS011;10060;48.274;12.214;2023-01-19T02:58:03;28.17;;;15.60;;
19800;SDS011;10060;48.274;12.214;2023-01-19T03:01:09;19.20;;;11.87;;
19800;SDS011;10060;48.274;12.214;2023-01-19T03:04:17;20.10;;;11.47;;
19800;SDS011;10060;48.274;12.214;2023-01-19T03:07:23;20.23;;;12.40;;
19800;SDS011;10060;48.274;12.214;2023-01-19T03:10:33;19.43;;;11.57;;
19800;SDS011;10060;48.274;12.214;2023-01-19T03:13:41;13.83;;;9.33;;
19800;SDS011;10060;48.274;12.214;2023-01-19T03:16:45;12.60;;;9.40;;
19800;SDS011;10060;48.274;12.214;2023-01-19T03:19:48;16.90;;;10.37;;
19800;SDS011;10060;48.274;12.214;2023-01-19T03:22:53;13.67;;;9.87;;
19800;SDS011;10060;48.274;12.214;2023-01-19T03:25:57;13.13;;;9.37;;
19800;SDS011;10060;48.274;12.214;2023-01-19T03:29:01;12.23;;;8.20;;
19800;SDS011;10060;48.274;12.214;2023-01-19T03:32:05;14.20;;;8.37;;
19800;SDS011;10060;48.274;12.214;2023-01-19T03:35:11;14.43;;;8.57;;
19800;SDS011;10060;48.274;12.214;2023-01-19T03:38:14;14.30;;;9.27;;
19800;SDS011;10060;48.274;12.214;2023-01-19T03:41:18;15.10;;;9.97;;
19800;SDS011;10060;48.274;12.214;2023-01-19T03:44:22;16.43;;;10.50;;
19800;SDS011;10060;48.274;12.214;2023-01-19T03:47:26;20.83;;;11.10;;
19800;SDS011;10060;48.274;12.214;2023-01-19T03:50:28;17.60;;;11.93;;
19800;SDS011;10060;48.274;12.214;2023-01-19T03:53:33;18.13;;;12.53;;
19800;SDS011;10060;48.274;12.214;2023-01-19T03:56:37;22.93;;;12.77;;
19800;SDS011;10060;48.274;12.214;2023-01-19T03:59:39;23.67;;;13.90;;
19800;SDS011;10060;48.274;12.214;2023-01-19T04:02:41;25.73;;;13.13;;
19800;SDS011;10060;48.274;12.214;2023-01-19T04:05:46;23.60;;;13.93;;
19800;SDS011;10060;48.274;12.214;2023-01-19T04:08:49;27.20;;;13.60;;
19800;SDS011;10060;48.274;12.214;2023-01-19T04:11:53;23.77;;;12.30;;
19800;SDS011;10060;48.274;12.214;2023-01-19T04:14:56;20.43;;;13.40;;
19800;SDS011;10060;48.274;12.214;2023-01-19T04:17:58;22.97;;;13.83;;
19800;SDS011;10060;48.274;12.214;2023-01-19T04:21:00;23.63;;;14.77;;
19800;SDS011;10060;48.274;12.214;2023-01-19T04:24:03;25.33;;;15.07;;
19800;SDS011;10060;48.274;12.214;2023-01-19T04:27:06;22.10;;;14.20;;
19800;SDS011;10060;48.274;12.214;2023-01-19T04:30:09;25.60;;;15.57;;
19800;SDS011;10060;48.274;12.214;2023-01-19T04:33:11;29.87;;;16.20;;
19800;SDS011;10060;48.274;12.214;2023-01-19T04:36:13;25.20;;;14.73;;
19800;SDS011;10060;48.274;12.214;2023-01-19T04:39:15;24.53;;;14.27;;
19800;SDS011;10060;48.274;12.214;2023-01-19T04:42:19;25.33;;;14.47;;
19800;SDS011;10060;48.274;12.214;2023-01-19T04:45:22;26.33;;;15.43;;
19800;SDS011;10060;48.274;12.214;2023-01-19T04:48:24;29.37;;;16.73;;
19800;SDS011;10060;48.274;12.214;2023-01-19T04:51:26;34.40;;;16.33;;
19800;SDS011;10060;48.274;12.214;2023-01-19T04:54:28;25.40;;;15.60;;
19800;SDS011;10060;48.274;12.214;2023-01-19T04:57:32;28.07;;;15.87;;
19800;SDS011;10060;48.274;12.214;2023-01-19T05:00:34;25.13;;;14.83;;
19800;SDS011;10060;48.274;12.214;2023-01-19T05:03:36;23.80;;;15.13;;
19800;SDS011;10060;48.274;12.214;2023-01-19T05:06:39;28.63;;;15.03;;
19800;SDS011;10060;48.274;12.214;2023-01-19T05:09:41;23.83;;;15.33;;
19800;SDS011;10060;48.274;12.214;2023-01-19T05:12:45;25.50;;;14.97;;
19800;SDS011;10060;48.274;12.214;2023-01-19T05:15:47;23.37;;;14.60;;
19800;SDS011;10060;48.274;12.214;2023-01-19T05:18:49;26.13;;;15.13;;
19800;SDS011;10060;48.274;12.214;2023-01-19T05:21:51;25.03;;;14.77;;
19800;SDS011;10060;48.274;12.214;2023-01-19T05:24:54;29.87;;;14.37;;
19800;SDS011;10060;48.274;12.214;2023-01-19T05:27:57;27.10;;;14.00;;
19800;SDS011;10060;48.274;12.214;2023-01-19T05:30:59;25.40;;;15.23;;
19800;SDS011;10060;48.274;12.214;2023-01-19T05:34:01;24.83;;;14.53;;
19800;SDS011;10060;48.274;12.214;2023-01-19T05:37:04;22.57;;;14.37;;
19800;SDS011;10060;48.274;12.214;2023-01-19T05:40:06;24.53;;;15.27;;
19800;SDS011;10060;48.274;12.214;2023-01-19T05:43:11;22.73;;;13.87;;
19800;SDS011;10060;48.274;12.214;2023-01-19T05:46:13;27.57;;;14.90;;
19800;SDS011;10060;48.274;12.214;2023-01-19T05:49:15;24.23;;;13.70;;
19800;SDS011;10060;48.274;12.214;2023-01-19T05:52:17;27.93;;;14.80;;
19800;SDS011;10060;48.274;12.214;2023-01-19T05:55:19;27.77;;;15.50;;
19800;SDS011;10060;48.274;12.214;2023-01-19T05:58:23;25.20;;;15.13;;
19800;SDS011;10060;48.274;12.214;2023-01-19T06:01:25;24.57;;;14.20;;
19800;SDS011;10060;48.274;12.214;2023-01-19T06:04:27;28.10;;;15.50;;
19800;SDS011;10060;48.274;12.214;2023-01-19T06:07:29;29.93;;;15.33;;
19800;SDS011;10060;48.274;12.214;2023-01-19T06:10:32;28.57;;;15.23;;
19800;SDS011;10060;48.274;12.214;2023-01-19T06:13:35;28.17;;;16.97;;
19800;SDS011;10060;48.274;12.214;2023-01-19T06:16:38;27.53;;;15.63;;
19800;SDS011;10060;48.274;12.214;2023-01-19T06:19:40;19.90;;;14.13;;
19800;SDS011;10060;48.274;12.214;2023-01-19T06:22:43;27.47;;;14.97;;
19800;SDS011;10060;48.274;12.214;2023-01-19T06:25:45;27.13;;;14.73;;
19800;SDS011;10060;48.274;12.214;2023-01-19T06:28:48;22.97;;;13.90;;
19800;SDS011;10060;48.274;12.214;2023-01-19T06:31:51;25.10;;;14.33;;
19800;SDS011;10060;48.274;12.214;2023-01-19T06:34:55;23.77;;;13.23;;
19800;SDS011;10060;48.274;12.214;2023-01-19T06:37:57;26.30;;;14.13;;
19800;SDS011;10060;48.274;12.214;2023-01-19T06:40:59;21.20;;;13.60;;
19800;SDS011;10060;48.274;12.214;2023-01-19T06:44:04;23.03;;;15.27;;
19800;SDS011;10060;48.274;12.214;2023-01-19T06:47:08;21.20;;;13.97;;
19800;SDS011;10060;48.274;12.214;2023-01-19T06:50:10;28.40;;;14.30;;
19800;SDS011;10060;48.274;12.214;2023-01-19T06:53:12;23.17;;;15.20;;
19800;SDS011;10060;48.274;12.214;2023-01-19T06:56:15;25.63;;;14.27;;
19800;SDS011;10060;48.274;12.214;2023-01-19T06:59:19;22.67;;;14.17;;
19800;SDS011;10060;48.274;12.214;2023-01-19T07:02:21;28.10;;;14.27;;
19800;SDS011;10060;48.274;12.214;2023-01-19T07:05:23;26.50;;;14.30;;
19800;SDS011;10060;48.274;12.214;2023-01-19T07:08:25;24.00;;;14.00;;
19800;SDS011;10060;48.274;12.214;2023-01-19T07:11:27;25.37;;;14.27;;
19800;SDS011;10060;48.274;12.214;2023-01-19T07:14:33;23.03;;;13.73;;
19800;SDS011;10060;48.274;12.214;2023-01-19T07:17:35;23.87;;;14.23;;
19800;SDS011;10060;48.274;12.214;2023-01-19T07:20:37;22.17;;;14.40;;
19800;SDS011;10060;48.274;12.214;2023-01-19T07:23:39;20.07;;;13.17;;
19800;SDS011;10060;48.274;12.214;2023-01-19T07:26:42;24.27;;;14.83;;
19800;SDS011;10060;48.274;12.214;2023-01-19T07:29:45;24.83;;;14.97;;
19800;SDS011;10060;48.274;12.214;2023-01-19T07:32:47;21.57;;;13.77;;
19800;SDS011;10060;48.274;12.214;2023-01-19T07:35:50;22.67;;;13.50;;
19800;SDS011;10060;48.274;12.214;2023-01-19T07:38:52;30.57;;;16.37;;
19800;SDS011;10060;48.274;12.214;2023-01-19T07:41:54;25.80;;;14.40;;
19800;SDS011;10060;48.274;12.214;2023-01-19T07:44:57;23.50;;;13.07;;
19800;SDS011;10060;48.274;12.214;2023-01-19T07:48:00;24.50;;;14.50;;
19800;SDS011;10060;48.274;12.214;2023-01-19T07:51:05;31.83;;;14.40;;
19800;SDS011;10060;48.274;12.214;2023-01-19T07:54:10;26.87;;;15.27;;
19800;SDS011;10060;48.274;12.214;2023-01-19T07:57:13;28.23;;;14.40;;
19800;SDS011;10060;48.274;12.214;2023-01-19T08:00:19;26.43;;;14.80;;
19800;SDS011;10060;48.274;12.214;2023-01-19T08:03:23;24.80;;;14.50;;
19800;SDS011;10060;48.274;12.214;2023-01-19T08:06:26;26.93;;;15.60;;
19800;SDS011;10060;48.274;12.214;2023-01-19T08:09:30;21.57;;;14.40;;
19800;SDS011;10060;48.274;12.214;2023-01-19T08:12:33;22.70;;;13.93;;
19800;SDS011;10060;48.274;12.214;2023-01-19T08:15:36;30.33;;;15.27;;
19800;SDS011;10060;48.274;12.214;2023-01-19T08:18:38;24.00;;;15.33;;
19800;SDS011;10060;48.274;12.214;2023-01-19T08:21:41;27.70;;;15.83;;
19800;SDS011;10060;48.274;12.214;2023-01-19T08:24:45;27.00;;;15.63;;
19800;SDS011;10060;48.274;12.214;2023-01-19T08:27:47;21.90;;;14.03;;
19800;SDS011;10060;48.274;12.214;2023-01-19T08:30:50;29.43;;;15.43;;
19800;SDS011;10060;48.274;12.214;2023-01-19T08:33:54;26.33;;;15.97;;
19800;SDS011;10060;48.274;12.214;2023-01-19T08:36:57;27.60;;;15.17;;
19800;SDS011;10060;48.274;12.214;2023-01-19T08:39:59;24.73;;;14.93;;
19800;SDS011;10060;48.274;12.214;2023-01-19T08:43:02;29.37;;;16.07;;
19800;SDS011;10060;48.274;12.214;2023-01-19T08:46:08;29.63;;;17.00;;
19800;SDS011;10060;48.274;12.214;2023-01-19T08:49:10;24.37;;;15.07;;
19800;SDS011;10060;48.274;12.214;2023-01-19T08:52:12;25.07;;;15.57;;
19800;SDS011;10060;48.274;12.214;2023-01-19T08:55:14;28.57;;;15.60;;
19800;SDS011;10060;48.274;12.214;2023-01-19T08:58:16;28.10;;;15.40;;
19800;SDS011;10060;48.274;12.214;2023-01-19T09:01:20;28.17;;;15.73;;
19800;SDS011;10060;48.274;12.214;2023-01-19T09:04:22;29.57;;;16.50;;
19800;SDS011;10060;48.274;12.214;2023-01-19T09:07:25;28.77;;;15.97;;
19800;SDS011;10060;48.274;12.214;2023-01-19T09:10:27;29.73;;;15.60;;
19800;SDS011;10060;48.274;12.214;2023-01-19T09:13:34;29.53;;;15.77;;
19800;SDS011;10060;48.274;12.214;2023-01-19T09:16:38;35.70;;;19.13;;
19800;SDS011;10060;48.274;12.214;2023-01-19T09:19:41;28.00;;;15.37;;
19800;SDS011;10060;48.274;12.214;2023-01-19T09:22:43;26.87;;;15.63;;
19800;SDS011;10060;48.274;12.214;2023-01-19T09:25:46;24.77;;;15.63;;
19800;SDS011;10060;48.274;12.214;2023-01-19T09:28:49;26.70;;;16.07;;
19800;SDS011;10060;48.274;12.214;2023-01-19T09:31:52;26.23;;;12.80;;
19800;SDS011;10060;48.274;12.214;2023-01-19T09:34:54;31.53;;;15.47;;
19800;SDS011;10060;48.274;12.214;2023-01-19T09:37:56;28.17;;;16.93;;
19800;SDS011;10060;48.274;12.214;2023-01-19T09:40:58;29.00;;;14.97;;
19800;SDS011;10060;48.274;12.214;2023-01-19T09:44:01;25.97;;;15.53;;
19800;SDS011;10060;48.274;12.214;2023-01-19T09:47:11;28.47;;;14.60;;
19800;SDS011;10060;48.274;12.214;2023-01-19T09:50:15;29.70;;;14.60;;
19800;SDS011;10060;48.274;12.214;2023-01-19T09:53:19;26.60;;;14.00;;
19800;SDS011;10060;48.274;12.214;2023-01-19T09:56:22;24.10;;;14.27;;
19800;SDS011;10060;48.274;12.214;2023-01-19T09:59:25;26.87;;;15.27;;
19800;SDS011;10060;48.274;12.214;2023-01-19T10:02:34;27.13;;;14.63;;
19800;SDS011;10060;48.274;12.214;2023-01-19T10:05:38;24.03;;;14.60;;
19800;SDS011;10060;48.274;12.214;2023-01-19T10:08:45;29.47;;;13.93;;
19800;SDS011;10060;48.274;12.214;2023-01-19T10:11:48;25.27;;;14.27;;
19800;SDS011;10060;48.274;12.214;2023-01-19T10:14:52;26.47;;;14.43;;
19800;SDS011;10060;48.274;12.214;2023-01-19T10:18:02;23.27;;;14.57;;
19800;SDS011;10060;48.274;12.214;2023-01-19T10:21:09;24.10;;;14.43;;
19800;SDS011;10060;48.274;12.214;2023-01-19T10:24:14;25.10;;;13.47;;
19800;SDS011;10060;48.274;12.214;2023-01-19T10:27:20;24.50;;;14.33;;
19800;SDS011;10060;48.274;12.214;2023-01-19T10:30:25;21.63;;;14.00;;
19800;SDS011;10060;48.274;12.214;2023-01-19T10:33:30;23.17;;;13.73;;
19800;SDS011;10060;48.274;12.214;2023-01-19T10:36:34;26.03;;;14.10;;
19800;SDS011;10060;48.274;12.214;2023-01-19T10:39:36;18.93;;;12.40;;
19800;SDS011;10060;48.274;12.214;2023-01-19T10:42:40;19.50;;;13.13;;
19800;SDS011;10060;48.274;12.214;2023-01-19T10:45:42;23.43;;;12.97;;
19800;SDS011;10060;48.274;12.214;2023-01-19T10:48:52;23.07;;;12.80;;
19800;SDS011;10060;48.274;12.214;2023-01-19T10:51:55;23.70;;;12.93;;
19800;SDS011;10060;48.274;12.214;2023-01-19T10:54:57;23.57;;;12.87;;
19800;SDS011;10060;48.274;12.214;2023-01-19T10:58:00;24.87;;;14.50;;
19800;SDS011;10060;48.274;12.214;2023-01-19T11:01:11;22.33;;;13.10;;
19800;SDS011;10060;48.274;12.214;2023-01-19T11:04:24;19.30;;;11.30;;
19800;SDS011;10060;48.274;12.214;2023-01-19T11:07:28;17.83;;;11.23;;
19800;SDS011;10060;48.274;12.214;2023-01-19T11:10:31;19.13;;;11.63;;
19800;SDS011;10060;48.274;12.214;2023-01-19T11:13:33;24.33;;;11.60;;
19800;SDS011;10060;48.274;12.214;2023-01-19T11:16:38;18.13;;;11.50;;
19800;SDS011;10060;48.274;12.214;2023-01-19T11:19:41;22.00;;;12.27;;
19800;SDS011;10060;48.274;12.214;2023-01-19T11:22:43;19.73;;;11.87;;
19800;SDS011;10060;48.274;12.214;2023-01-19T11:25:46;22.47;;;12.80;;
19800;SDS011;10060;48.274;12.214;2023-01-19T11:28:52;20.60;;;12.93;;
19800;SDS011;10060;48.274;12.214;2023-01-19T11:32:09;19.97;;;12.23;;
19800;SDS011;10060;48.274;12.214;2023-01-19T11:35:32;18.67;;;10.73;;
19800;SDS011;10060;48.274;12.214;2023-01-19T11:38:39;20.10;;;10.97;;
19800;SDS011;10060;48.274;12.214;2023-01-19T11:41:42;18.60;;;11.40;;
19800;SDS011;10060;48.274;12.214;2023-01-19T11:44:45;17.13;;;11.10;;
19800;SDS011;10060;48.274;12.214;2023-01-19T11:47:49;19.13;;;10.87;;
19800;SDS011;10060;48.274;12.214;2023-01-19T11:50:52;18.87;;;11.30;;
19800;SDS011;10060;48.274;12.214;2023-01-19T11:53:55;18.63;;;11.03;;
19800;SDS011;10060;48.274;12.214;2023-01-19T11:56:58;23.53;;;11.10;;
19800;SDS011;10060;48.274;12.214;2023-01-19T12:00:02;17.43;;;10.50;;
19800;SDS011;10060;48.274;12.214;2023-01-19T12:03:07;19.00;;;10.67;;
19800;SDS011;10060;48.274;12.214;2023-01-19T12:06:13;20.60;;;11.80;;
19800;SDS011;10060;48.274;12.214;2023-01-19T12:09:17;18.93;;;10.90;;
19800;SDS011;10060;48.274;12.214;2023-01-19T12:12:23;16.47;;;10.13;;
19800;SDS011;10060;48.274;12.214;2023-01-19T12:15:28;16.67;;;10.33;;
19800;SDS011;10060;48.274;12.214;2023-01-19T12:18:34;17.17;;;9.97;;
19800;SDS011;10060;48.274;12.214;2023-01-19T12:21:39;14.63;;;9.73;;
19800;SDS011;10060;48.274;12.214;2023-01-19T12:24:43;18.33;;;10.20;;
19800;SDS011;10060;48.274;12.214;2023-01-19T12:27:47;17.77;;;9.57;;
19800;SDS011;10060;48.274;12.214;2023-01-19T12:30:50;17.57;;;9.80;;
19800;SDS011;10060;48.274;12.214;2023-01-19T12:33:52;17.47;;;10.03;;
19800;SDS011;10060;48.274;12.214;2023-01-19T12:36:58;15.43;;;9.27;;
19800;SDS011;10060;48.274;12.214;2023-01-19T12:40:02;14.60;;;9.27;;
19800;SDS011;10060;48.274;12.214;2023-01-19T12:43:05;14.70;;;9.77;;
19800;SDS011;10060;48.274;12.214;2023-01-19T12:46:17;14.37;;;9.53;;
19800;SDS011;10060;48.274;12.214;2023-01-19T12:49:21;14.27;;;9.43;;
19800;SDS011;10060;48.274;12.214;2023-01-19T12:52:27;15.20;;;9.00;;
19800;SDS011;10060;48.274;12.214;2023-01-19T12:55:32;15.63;;;9.60;;
19800;SDS011;10060;48.274;12.214;2023-01-19T12:58:35;12.87;;;9.13;;
19800;SDS011;10060;48.274;12.214;2023-01-19T13:01:37;17.13;;;9.40;;
19800;SDS011;10060;48.274;12.214;2023-01-19T13:04:39;14.53;;;8.80;;
19800;SDS011;10060;48.274;12.214;2023-01-19T13:17:37;16.70;;;9.83;;
19800;SDS011;10060;48.274;12.214;2023-01-19T13:20:42;15.33;;;9.97;;
19800;SDS011;10060;48.274;12.214;2023-01-19T13:23:51;13.73;;;9.07;;
19800;SDS011;10060;48.274;12.214;2023-01-19T13:26:54;13.53;;;8.77;;
19800;SDS011;10060;48.274;12.214;2023-01-19T13:30:05;14.33;;;9.17;;
19800;SDS011;10060;48.274;12.214;2023-01-19T13:33:13;13.27;;;9.00;;
19800;SDS011;10060;48.274;12.214;2023-01-19T13:36:22;13.53;;;8.97;;
19800;SDS011;10060;48.274;12.214;2023-01-19T13:39:26;13.97;;;8.70;;
19800;SDS011;10060;48.274;12.214;2023-01-19T13:42:29;16.67;;;9.13;;
19800;SDS011;10060;48.274;12.214;2023-01-19T13:45:33;14.00;;;9.07;;
19800;SDS011;10060;48.274;12.214;2023-01-19T13:48:40;17.57;;;9.73;;
19800;SDS011;10060;48.274;12.214;2023-01-19T13:52:06;13.27;;;8.63;;
19800;SDS011;10060;48.274;12.214;2023-01-19T13:55:11;13.63;;;9.27;;
19800;SDS011;10060;48.274;12.214;2023-01-19T13:58:20;20.20;;;8.53;;
19800;SDS011;10060;48.274;12.214;2023-01-19T14:01:22;15.20;;;8.50;;
19800;SDS011;10060;48.274;12.214;2023-01-19T14:04:29;12.70;;;8.43;;
19800;SDS011;10060;48.274;12.214;2023-01-19T14:07:31;16.90;;;8.87;;
19800;SDS011;10060;48.274;12.214;2023-01-19T14:10:34;11.40;;;7.33;;
19800;SDS011;10060;48.274;12.214;2023-01-19T14:13:36;10.20;;;7.83;;
19800;SDS011;10060;48.274;12.214;2023-01-19T14:16:42;12.13;;;8.17;;
19800;SDS011;10060;48.274;12.214;2023-01-19T14:19:48;15.30;;;8.77;;
19800;SDS011;10060;48.274;12.214;2023-01-19T14:22:50;14.77;;;8.40;;
19800;SDS011;10060;48.274;12.214;2023-01-19T14:25:52;10.80;;;7.67;;
19800;SDS011;10060;48.274;12.214;2023-01-19T14:28:54;12.43;;;8.10;;
19800;SDS011;10060;48.274;12.214;2023-01-19T14:32:04;11.73;;;7.23;;
19800;SDS011;10060;48.274;12.214;2023-01-19T14:35:12;16.73;;;8.30;;
19800;SDS011;10060;48.274;12.214;2023-01-19T14:38:15;12.00;;;8.03;;
19800;SDS011;10060;48.274;12.214;2023-01-19T14:41:21;14.50;;;7.70;;
19800;SDS011;10060;48.274;12.214;2023-01-19T14:44:25;11.23;;;7.40;;
19800;SDS011;10060;48.274;12.214;2023-01-19T14:47:34;11.87;;;7.60;;
19800;SDS011;10060;48.274;12.214;2023-01-19T14:50:39;12.50;;;7.33;;
19800;SDS011;10060;48.274;12.214;2023-01-19T14:53:45;10.97;;;7.47;;
19800;SDS011;10060;48.274;12.214;2023-01-19T14:56:48;11.40;;;7.47;;
19800;SDS011;10060;48.274;12.214;2023-01-19T14:59:50;15.73;;;7.90;;
19800;SDS011;10060;48.274;12.214;2023-01-19T15:02:52;12.80;;;7.70;;
19800;SDS011;10060;48.274;12.214;2023-01-19T15:05:55;11.73;;;7.33;;
19800;SDS011;10060;48.274;12.214;2023-01-19T15:08:59;12.40;;;7.33;;
19800;SDS011;10060;48.274;12.214;2023-01-19T15:12:01;13.93;;;8.00;;
19800;SDS011;10060;48.274;12.214;2023-01-19T15:15:03;13.90;;;8.67;;
19800;SDS011;10060;48.274;12.214;2023-01-19T15:18:05;11.57;;;7.67;;
19800;SDS011;10060;48.274;12.214;2023-01-19T15:21:10;14.00;;;7.80;;
19800;SDS011;10060;48.274;12.214;2023-01-19T15:24:12;11.30;;;7.80;;
19800;SDS011;10060;48.274;12.214;2023-01-19T15:27:15;12.27;;;7.70;;
19800;SDS011;10060;48.274;12.214;2023-01-19T15:30:18;12.07;;;7.43;;
19800;SDS011;10060;48.274;12.214;2023-01-19T15:33:21;12.40;;;7.37;;
19800;SDS011;10060;48.274;12.214;2023-01-19T15:36:25;15.47;;;7.77;;
19800;SDS011;10060;48.274;12.214;2023-01-19T15:39:27;9.97;;;7.03;;
19800;SDS011;10060;48.274;12.214;2023-01-19T15:42:29;12.13;;;8.27;;
19800;SDS011;10060;48.274;12.214;2023-01-19T15:45:33;11.63;;;7.43;;
19800;SDS011;10060;48.274;12.214;2023-01-19T15:48:35;12.47;;;7.50;;
19800;SDS011;10060;48.274;12.214;2023-01-19T15:51:39;10.57;;;6.97;;
19800;SDS011;10060;48.274;12.214;2023-01-19T15:54:41;14.73;;;8.00;;
19800;SDS011;10060;48.274;12.214;2023-01-19T15:57:43;11.73;;;7.17;;
19800;SDS011;10060;48.274;12.214;2023-01-19T16:00:50;11.13;;;7.27;;
19800;SDS011;10060;48.274;12.214;2023-01-19T16:03:53;12.23;;;7.47;;
19800;SDS011;10060;48.274;12.214;2023-01-19T16:06:56;14.03;;;7.37;;
19800;SDS011;10060;48.274;12.214;2023-01-19T16:09:59;12.33;;;7.77;;
19800;SDS011;10060;48.274;12.214;2023-01-19T16:13:02;14.33;;;7.43;;
19800;SDS011;10060;48.274;12.214;2023-01-19T16:16:05;14.37;;;8.10;;
19800;SDS011;10060;48.274;12.214;2023-01-19T16:19:07;11.63;;;7.20;;
19800;SDS011;10060;48.274;12.214;2023-01-19T16:22:10;11.03;;;7.30;;
19800;SDS011;10060;48.274;12.214;2023-01-19T16:25:13;11.23;;;7.63;;
19800;SDS011;10060;48.274;12.214;2023-01-19T16:28:15;12.17;;;7.40;;
19800;SDS011;10060;48.274;12.214;2023-01-19T16:31:17;10.27;;;7.37;;
19800;SDS011;10060;48.274;12.214;2023-01-19T16:34:19;11.53;;;7.30;;
19800;SDS011;10060;48.274;12.214;2023-01-19T16:37:23;11.90;;;6.90;;
19800;SDS011;10060;48.274;12.214;2023-01-19T16:40:25;11.17;;;7.20;;
19800;SDS011;10060;48.274;12.214;2023-01-19T16:43:27;11.53;;;6.93;;
19800;SDS011;10060;48.274;12.214;2023-01-19T16:46:30;10.10;;;7.47;;
19800;SDS011;10060;48.274;12.214;2023-01-19T16:49:34;11.77;;;7.73;;
19800;SDS011;10060;48.274;12.214;2023-01-19T16:52:37;11.53;;;7.43;;
19800;SDS011;10060;48.274;12.214;2023-01-19T16:55:39;10.87;;;7.40;;
19800;SDS011;10060;48.274;12.214;2023-01-19T16:58:41;9.00;;;6.70;;
19800;SDS011;10060;48.274;12.214;2023-01-19T17:01:44;9.73;;;6.43;;
19800;SDS011;10060;48.274;12.214;2023-01-19T17:04:46;17.73;;;6.53;;
19800;SDS011;10060;48.274;12.214;2023-01-19T17:07:49;12.10;;;7.97;;
19800;SDS011;10060;48.274;12.214;2023-01-19T17:10:51;10.10;;;6.97;;
19800;SDS011;10060;48.274;12.214;2023-01-19T17:13:55;10.20;;;6.93;;
19800;SDS011;10060;48.274;12.214;2023-01-19T17:16:59;38.43;;;17.80;;
19800;SDS011;10060;48.274;12.214;2023-01-19T17:20:01;21.60;;;13.03;;
19800;SDS011;10060;48.274;12.214;2023-01-19T17:23:04;23.17;;;12.80;;
19800;SDS011;10060;48.274;12.214;2023-01-19T17:26:06;17.07;;;11.10;;
19800;SDS011;10060;48.274;12.214;2023-01-19T17:29:09;13.87;;;8.27;;
19800;SDS011;10060;48.274;12.214;2023-01-19T17:32:11;12.53;;;7.33;;
19800;SDS011;10060;48.274;12.214;2023-01-19T17:35:13;13.00;;;7.93;;
19800;SDS011;10060;48.274;12.214;2023-01-19T17:38:17;16.43;;;8.43;;
19800;SDS011;10060;48.274;12.214;2023-01-19T17:41:19;13.73;;;8.57;;
19800;SDS011;10060;48.274;12.214;2023-01-19T17:44:22;10.80;;;6.77;;
19800;SDS011;10060;48.274;12.214;2023-01-19T17:47:24;13.30;;;7.60;;
19800;SDS011;10060;48.274;12.214;2023-01-19T17:50:26;13.83;;;9.40;;
19800;SDS011;10060;48.274;12.214;2023-01-19T17:53:29;13.67;;;10.30;;
19800;SDS011;10060;48.274;12.214;2023-01-19T17:56:34;12.33;;;8.17;;